Rome, Wisconsin
Current Conditions -  °F | °C
As of 7:54 AM on Saturday 25 Oct 2014 (Local Time) from KISW Reporting Station
Clear Clear  
Wind Chill: 45°   Ceiling: Unl
Heat Index: 49°   Visibility: 10mi
Dew Point: 42°   Wind: 8mph
Humidity: 77%   Direction: 290°WNW
Pressure: 29.91"   Gusts: NA
Location:  44.252°N, 89.9853°W
Report Text: KISW 251254Z AUTO 29007KT 10SM CLR 09/06 A2991 RMK AO2 SLP132 T00940056
Loading
Personal Weather Stations






























Interactive Weather Map New forecast layout! Learn more

10-Day Weather Forecast

Advertisements
Track Severe Weather on mobile